Terminal Aerodrome Forecast
Issued by NWS Twin Cities, MN

Home | Current Version | Previous Version | Graphics & Text | Print | Product List | Glossary On
Versions: 1 2 3 4 5 6 7 8 9 10 11 12
000
FTUS43 KMPX 151740
TAFSTC
TAF
KSTC 151740Z 1518/1618 17019G27KT P6SM SCT250
     FM160100 15007KT P6SM SCT080 BKN120
     FM161600 23008KT P6SM OVC050=

USA.gov is the U.S. government's official web portal to all federal, state and local government web resources and services.